createdAt,value
2017-09-28T00:00:55.523Z,23.68
2017-09-28T00:02:04.537Z,23.68
2017-09-28T00:03:13.558Z,23.68
2017-09-28T00:04:22.586Z,23.69
2017-09-28T00:05:31.606Z,23.65
2017-09-28T00:06:40.620Z,23.65
2017-09-28T00:07:49.953Z,23.65
2017-09-28T00:08:58.967Z,23.71
2017-09-28T00:10:07.661Z,23.68
2017-09-28T00:11:16.683Z,23.61
2017-09-28T00:12:25.699Z,23.66
2017-09-28T00:13:34.713Z,23.63
2017-09-28T00:14:43.407Z,23.63
2017-09-28T00:15:52.430Z,23.71
2017-09-28T00:17:01.440Z,23.61
2017-09-28T00:18:10.456Z,23.59
2017-09-28T00:19:20.432Z,23.61
2017-09-28T00:20:29.127Z,23.65
2017-09-28T00:21:38.779Z,23.59
2017-09-28T00:22:47.793Z,23.56
2017-09-28T00:23:56.810Z,23.69
2017-09-28T00:25:05.506Z,23.56
2017-09-28T00:26:14.844Z,23.62
2017-09-28T00:27:23.540Z,23.66
2017-09-28T00:28:32.553Z,23.56
2017-09-28T00:29:41.891Z,23.63
2017-09-28T00:30:51.224Z,23.59
2017-09-28T00:31:59.921Z,23.61
2017-09-28T00:33:08.935Z,23.69
2017-09-28T00:34:18.270Z,23.54
2017-09-28T00:35:27.610Z,23.61
2017-09-28T00:36:37.269Z,23.55
2017-09-28T00:37:46.609Z,23.56
2017-09-28T00:38:55.940Z,23.55
2017-09-28T00:40:05.593Z,23.61
2017-09-28T00:41:14.607Z,23.58
2017-09-28T00:42:23.946Z,23.56
2017-09-28T00:43:33.280Z,23.56
2017-09-28T00:44:42.306Z,23.62
2017-09-28T00:45:51.323Z,23.63
2017-09-28T00:47:00.019Z,23.56
2017-09-28T00:48:09.355Z,23.59
2017-09-28T00:49:18.370Z,23.61
2017-09-28T00:50:27.387Z,23.56
2017-09-28T00:51:36.410Z,23.62
2017-09-28T00:52:45.424Z,23.59
2017-09-28T00:53:54.439Z,23.62
2017-09-28T00:55:03.451Z,23.58
2017-09-28T00:56:12.474Z,23.65
2017-09-28T00:57:21.489Z,23.54
2017-09-28T00:58:30.506Z,23.55
2017-09-28T00:59:39.533Z,23.54
2017-09-28T01:00:48.549Z,23.59
2017-09-28T01:01:57.564Z,23.54
2017-09-28T01:03:06.900Z,23.62
2017-09-28T01:04:15.917Z,23.56
2017-09-28T01:05:24.938Z,23.55
2017-09-28T01:06:34.599Z,23.65
2017-09-28T01:07:44.251Z,23.58
2017-09-28T01:08:53.587Z,23.56
2017-09-28T01:10:02.926Z,23.59
2017-09-28T02:46:53.217Z,23.28
2017-09-28T02:48:02.551Z,23.34
2017-09-28T02:49:11.250Z,23.28
2017-09-28T02:50:20.594Z,23.27
2017-09-28T02:51:29.927Z,23.34
2017-09-28T02:52:39.260Z,23.34
2017-09-28T02:53:48.598Z,23.34
2017-09-28T02:54:57.936Z,23.28
2017-09-28T02:56:06.960Z,23.32
2017-09-28T02:57:15.978Z,23.36
2017-09-28T02:58:25.318Z,23.36
2017-09-28T02:59:34.336Z,23.34
2017-09-28T03:00:43.992Z,23.34
2017-09-28T03:01:52.689Z,23.34
2017-09-28T03:03:01.706Z,23.32
2017-09-28T03:04:10.402Z,23.28
2017-09-28T03:05:19.100Z,23.32
2017-09-28T03:06:28.119Z,23.24
2017-09-28T03:07:37.451Z,23.27
2017-09-28T03:08:46.468Z,23.4
2017-09-28T03:09:55.797Z,23.32
2017-09-28T03:11:05.134Z,23.23
2017-09-28T03:12:14.152Z,23.27
2017-09-28T03:13:23.164Z,23.28
2017-09-28T03:14:32.495Z,23.34
2017-09-28T03:15:41.512Z,23.34
2017-09-28T03:16:50.520Z,23.23
2017-09-28T03:17:59.215Z,23.28
2017-09-28T03:19:07.910Z,23.31
2017-09-28T03:20:16.925Z,23.31
2017-09-28T03:21:26.261Z,23.34
2017-09-28T03:22:35.593Z,23.27
2017-09-28T03:23:45.247Z,23.28
2017-09-28T03:24:54.266Z,23.27
2017-09-28T03:26:03.276Z,23.18
2017-09-28T03:27:12.930Z,23.24
2017-09-28T03:28:21.621Z,23.2
2017-09-28T03:29:30.956Z,23.32
2017-09-28T03:30:40.290Z,23.23
2017-09-28T03:31:49.301Z,23.24
2017-09-28T03:32:58.636Z,23.24
2017-09-28T03:34:07.649Z,23.28
2017-09-28T03:35:16.670Z,23.21
2017-09-28T03:36:25.685Z,23.21
2017-09-28T03:37:34.696Z,23.18
2017-09-28T03:38:43.396Z,23.21
2017-09-28T03:39:52.734Z,23.24
2017-09-28T03:41:01.429Z,23.21
2017-09-28T03:42:10.444Z,23.24
2017-09-28T03:43:19.778Z,23.24
2017-09-28T03:44:28.796Z,23.2
2017-09-28T03:45:38.134Z,23.18
2017-09-28T03:46:46.834Z,23.23
2017-09-28T03:47:55.527Z,23.25
2017-09-28T03:49:04.540Z,23.23
2017-09-28T03:50:13.870Z,23.24
2017-09-28T03:51:23.520Z,23.27
2017-09-28T03:52:32.857Z,23.21
2017-09-28T03:53:41.870Z,23.23
2017-09-28T03:54:50.572Z,23.39
2017-09-28T03:55:59.261Z,23.25
2017-09-28T03:57:07.957Z,23.27
2017-09-28T03:58:16.969Z,23.31
2017-09-28T03:59:25.979Z,23.23
2017-09-28T04:00:34.680Z,23.32
2017-09-28T04:01:43.696Z,23.37
2017-09-28T04:02:52.716Z,23.37
2017-09-28T04:04:01.410Z,23.36
2017-09-28T04:05:10.752Z,23.28
2017-09-28T04:06:19.778Z,23.31
2017-09-28T04:07:29.119Z,23.36
2017-09-28T04:08:38.134Z,23.31
2017-09-28T04:09:47.149Z,23.27
2017-09-28T04:10:56.163Z,23.32
2017-09-28T04:12:05.176Z,23.37
2017-09-28T04:13:14.508Z,23.34
2017-09-28T04:14:23.842Z,23.28
2017-09-28T04:15:32.858Z,23.32
2017-09-28T04:16:41.554Z,23.36
2017-09-28T04:17:50.581Z,23.34
2017-09-28T04:18:59.274Z,23.39
2017-09-28T04:20:07.973Z,23.39
2017-09-28T04:21:16.665Z,23.37
2017-09-28T04:22:26.323Z,23.36
2017-09-28T04:23:35.663Z,23.34
2017-09-28T04:24:44.999Z,23.4
2017-09-28T04:25:53.695Z,23.4
2017-09-28T04:27:02.713Z,23.39
2017-09-28T04:28:12.050Z,23.39
2017-09-28T04:29:21.063Z,23.31
2017-09-28T04:30:29.755Z,23.4
2017-09-28T04:31:38.768Z,23.48
2017-09-28T04:32:47.786Z,23.46
2017-09-28T04:33:57.121Z,23.41
2017-09-28T04:35:05.811Z,23.48
2017-09-28T04:36:14.824Z,23.4
2017-09-28T04:37:23.518Z,23.43
2017-09-28T04:38:32.854Z,23.48
2017-09-28T04:39:42.512Z,23.48
2017-09-28T04:40:51.845Z,23.37
2017-09-28T04:42:01.178Z,23.5
2017-09-28T04:43:10.193Z,23.43
2017-09-28T04:44:18.891Z,23.46
2017-09-28T04:45:27.907Z,23.43
2017-09-28T04:46:36.601Z,23.48
2017-09-28T04:47:45.956Z,23.4
2017-09-28T04:48:55.291Z,23.4
2017-09-28T04:50:04.302Z,23.54
2017-09-28T04:51:13.330Z,23.48
2017-09-28T04:52:22.052Z,23.51
2017-09-28T04:53:30.748Z,23.5
2017-09-28T04:54:39.445Z,23.47
2017-09-28T04:55:48.773Z,23.54
2017-09-28T04:56:57.794Z,23.54
2017-09-28T04:58:06.811Z,23.54
2017-09-28T04:59:16.142Z,23.55
2017-09-28T05:00:24.840Z,23.5
2017-09-28T05:01:33.854Z,23.5
2017-09-28T05:02:43.187Z,23.54
2017-09-28T05:03:52.524Z,23.51
2017-09-28T05:05:01.859Z,23.47
2017-09-28T05:06:10.877Z,23.5
2017-09-28T05:07:20.214Z,23.63
2017-09-28T05:08:29.546Z,23.5
2017-09-28T05:09:38.878Z,23.54
2017-09-28T05:10:47.934Z,23.54
2017-09-28T05:11:57.269Z,23.56
2017-09-28T05:13:06.947Z,23.65
2017-09-28T05:14:15.961Z,23.61
2017-09-28T05:15:24.973Z,23.58
2017-09-28T05:16:34.305Z,23.62
2017-09-28T05:17:43.649Z,23.51
2017-09-28T05:18:53.308Z,23.65
2017-09-28T05:20:02.644Z,23.61
2017-09-28T05:21:11.974Z,23.61
2017-09-28T05:22:20.672Z,23.54
2017-09-28T05:23:29.367Z,23.61
2017-09-28T05:24:38.067Z,23.63
2017-09-28T05:25:47.075Z,23.58
2017-09-28T05:26:56.094Z,23.62
2017-09-28T05:28:05.112Z,23.55
2017-09-28T05:29:14.448Z,23.51
2017-09-28T05:30:23.780Z,23.61
2017-09-28T05:31:33.760Z,23.58
2017-09-28T05:32:43.096Z,23.62
2017-09-28T05:33:52.108Z,23.65
2017-09-28T05:35:01.447Z,23.59
2017-09-28T05:36:10.792Z,23.63
2017-09-28T05:37:20.129Z,23.63
2017-09-28T05:38:28.826Z,23.62
2017-09-28T05:39:38.166Z,23.55
2017-09-28T05:40:47.823Z,23.56
2017-09-28T05:41:56.836Z,23.63
2017-09-28T05:43:06.169Z,23.58
2017-09-28T05:44:15.506Z,23.59
2017-09-28T05:45:24.838Z,23.62
2017-09-28T05:46:33.532Z,23.62
2017-09-28T05:47:42.871Z,23.58
2017-09-28T05:48:52.524Z,23.58
2017-09-28T05:50:01.549Z,23.63
2017-09-28T05:51:11.204Z,23.65
2017-09-28T05:52:20.221Z,23.59
2017-09-28T05:53:28.915Z,23.58
2017-09-28T05:54:37.940Z,23.65
2017-09-28T05:55:46.961Z,23.76
2017-09-28T05:56:55.977Z,23.66
2017-09-28T05:58:04.991Z,23.74
2017-09-28T05:59:13.689Z,23.66
2017-09-28T06:00:22.704Z,23.62
2017-09-28T06:01:32.043Z,23.66
2017-09-28T06:02:41.720Z,23.68
2017-09-28T06:03:50.732Z,23.61
2017-09-28T06:04:59.746Z,23.63
2017-09-28T06:06:08.763Z,23.66
2017-09-28T06:07:17.775Z,23.74
2017-09-28T06:08:26.469Z,23.73
2017-09-28T06:09:35.523Z,23.68
2017-09-28T06:10:44.179Z,23.65
2017-09-28T06:11:53.192Z,23.68
2017-09-28T06:13:02.206Z,23.71
2017-09-28T06:14:11.230Z,23.77
2017-09-28T06:15:20.562Z,23.77
2017-09-28T06:16:29.902Z,23.73
2017-09-28T06:17:38.920Z,23.69
2017-09-28T06:18:48.901Z,23.69
2017-09-28T06:19:57.919Z,23.65
2017-09-28T06:21:07.255Z,23.76
2017-09-28T06:22:15.950Z,23.63
2017-09-28T06:23:24.969Z,23.71
2017-09-28T06:24:34.945Z,23.65
2017-09-28T06:25:43.960Z,23.77
2017-09-28T06:26:52.984Z,23.68
2017-09-28T06:28:02.006Z,23.71
2017-09-28T06:29:11.362Z,23.66
2017-09-28T06:30:20.719Z,23.68
2017-09-28T06:31:29.429Z,23.73
2017-09-28T06:32:38.752Z,23.74
2017-09-28T06:33:47.450Z,23.68
2017-09-28T06:34:56.142Z,23.71
2017-09-28T06:36:05.154Z,23.69
2017-09-28T06:37:14.816Z,23.73
2017-09-28T06:38:23.837Z,23.68
2017-09-28T06:39:33.521Z,23.65
2017-09-28T06:40:42.529Z,23.73
2017-09-28T06:41:51.542Z,23.69
2017-09-28T06:43:00.558Z,23.69
2017-09-28T06:44:09.903Z,23.66
2017-09-28T06:45:18.918Z,23.68
2017-09-28T06:46:28.260Z,23.66
2017-09-28T06:47:37.596Z,23.71
2017-09-28T06:48:46.615Z,23.69
2017-09-28T06:49:55.624Z,23.65
2017-09-28T06:51:04.953Z,23.74
2017-09-28T06:52:13.997Z,23.74
2017-09-28T06:53:23.330Z,23.68
2017-09-28T06:54:32.666Z,23.74
2017-09-28T06:55:41.684Z,23.71
2017-09-28T06:56:51.337Z,23.73
2017-09-28T06:58:00.033Z,23.76
2017-09-28T06:59:09.367Z,23.77
2017-09-28T07:00:18.070Z,23.76
2017-09-28T07:01:27.080Z,23.77
2017-09-28T07:02:36.416Z,23.8
2017-09-28T07:03:45.784Z,23.8
2017-09-28T07:04:54.775Z,23.74
2017-09-28T07:06:03.789Z,23.77
2017-09-28T07:07:12.802Z,23.84
2017-09-28T07:08:21.819Z,23.84
2017-09-28T07:09:30.838Z,23.81
2017-09-28T07:10:39.531Z,23.88
2017-09-28T07:11:48.868Z,23.91
2017-09-28T07:12:58.204Z,23.88
2017-09-28T07:14:07.858Z,23.91
2017-09-28T07:15:17.190Z,23.93
2017-09-28T07:16:26.204Z,23.95
2017-09-28T07:17:34.905Z,23.92
2017-09-28T07:18:44.556Z,23.91
2017-09-28T07:19:53.573Z,23.92
2017-09-28T07:21:02.589Z,23.88
2017-09-28T07:22:11.599Z,23.93
2017-09-28T07:23:20.621Z,23.92
2017-09-28T07:24:29.311Z,23.87
2017-09-28T07:25:38.324Z,23.92
2017-09-28T07:26:47.666Z,23.92
2017-09-28T07:27:57.008Z,23.86
2017-09-28T07:29:06.344Z,23.81
2017-09-28T07:30:15.357Z,23.8
2017-09-28T07:31:24.370Z,23.91
2017-09-28T07:32:33.071Z,23.81
2017-09-28T07:33:42.411Z,23.92
2017-09-28T07:34:51.426Z,23.91
2017-09-28T07:36:00.757Z,23.84
2017-09-28T07:37:10.086Z,23.88
2017-09-28T07:38:19.106Z,23.91
2017-09-28T07:39:27.804Z,23.87
2017-09-28T07:40:37.138Z,23.93
2017-09-28T07:41:46.154Z,23.93
2017-09-28T07:42:55.171Z,23.87
2017-09-28T07:44:04.186Z,23.83
2017-09-28T07:45:13.203Z,23.91
2017-09-28T07:46:22.855Z,23.95
2017-09-28T07:47:31.866Z,23.84
2017-09-28T07:48:41.200Z,23.93
2017-09-28T07:49:49.896Z,23.95
2017-09-28T07:50:58.908Z,23.96
2017-09-28T07:52:07.922Z,23.96
2017-09-28T07:53:16.617Z,24.01
2017-09-28T07:54:25.637Z,23.99
2017-09-28T07:55:35.297Z,23.99
2017-09-28T07:56:44.322Z,24.01
2017-09-28T07:57:53.339Z,24.1
2017-09-28T07:59:02.031Z,24.1
2017-09-28T08:00:11.045Z,24.17
2017-09-28T08:01:20.060Z,24.21
2017-09-28T08:02:29.400Z,24.17
2017-09-28T08:03:38.412Z,24.23
2017-09-28T08:04:47.747Z,24.21
2017-09-28T08:05:56.763Z,24.21
2017-09-28T08:07:05.776Z,24.23
2017-09-28T08:08:15.125Z,24.26
2017-09-28T08:09:24.138Z,24.2
2017-09-28T08:10:33.155Z,24.26
2017-09-28T08:11:41.850Z,24.33
2017-09-28T08:12:51.183Z,24.24
2017-09-28T08:14:00.195Z,24.3
2017-09-28T08:15:09.849Z,24.32
2017-09-28T08:16:19.189Z,24.33
2017-09-28T08:17:28.523Z,24.38
2017-09-28T08:18:37.541Z,24.39
2017-09-28T08:19:46.877Z,24.45
2017-09-28T08:20:56.212Z,24.48
2017-09-28T08:22:05.550Z,24.48
2017-09-28T08:23:15.200Z,24.48
2017-09-28T08:24:24.537Z,24.39
2017-09-28T08:25:33.875Z,24.38
2017-09-28T08:26:42.890Z,24.53
2017-09-28T08:27:51.918Z,24.53
2017-09-28T08:29:00.935Z,24.61
2017-09-28T08:30:10.272Z,24.55
2017-09-28T08:31:19.928Z,24.61
2017-09-28T08:32:29.266Z,24.65
2017-09-28T08:33:37.963Z,24.61
2017-09-28T08:34:46.658Z,24.61
2017-09-28T08:35:55.996Z,24.6
2017-09-28T08:37:04.691Z,24.65
2017-09-28T08:38:13.706Z,24.63
2017-09-28T08:39:23.040Z,24.69
2017-09-28T08:40:32.383Z,24.66
2017-09-28T08:41:41.405Z,24.66
2017-09-28T08:42:50.742Z,24.66
2017-09-28T08:43:59.753Z,24.7
2017-09-28T08:45:09.729Z,24.6
2017-09-28T08:46:18.750Z,24.68
2017-09-28T08:47:28.402Z,24.6
2017-09-28T08:48:37.421Z,24.74
2017-09-28T08:49:46.431Z,24.6
2017-09-28T08:50:56.403Z,24.73
2017-09-28T08:52:05.426Z,24.68
2017-09-28T08:53:14.441Z,24.7
2017-09-28T08:54:23.462Z,24.68
2017-09-28T08:55:32.796Z,24.68
2017-09-28T08:56:42.137Z,24.7
2017-09-28T08:57:51.152Z,24.74
2017-09-28T08:58:59.847Z,24.58
2017-09-28T09:00:08.862Z,24.74
2017-09-28T09:01:17.877Z,24.73
2017-09-28T09:02:26.573Z,24.73
2017-09-28T09:03:36.225Z,24.78
2017-09-28T09:04:45.244Z,24.84
2017-09-28T09:05:54.256Z,24.92
2017-09-28T09:07:03.593Z,24.92
2017-09-28T09:08:12.923Z,24.91
2017-09-28T09:09:22.268Z,25.06
2017-09-28T09:10:31.613Z,25.11
2017-09-28T09:11:40.306Z,25.25
2017-09-28T09:12:49.329Z,25.33
2017-09-28T09:13:58.024Z,25.36
2017-09-28T09:15:06.719Z,25.47
2017-09-28T09:16:16.055Z,25.51
2017-09-28T09:17:25.393Z,25.51
2017-09-28T09:18:34.731Z,25.62
2017-09-28T09:19:43.747Z,25.7
2017-09-28T09:20:52.444Z,25.58
2017-09-28T09:22:01.136Z,25.59
2017-09-28T09:23:10.467Z,25.54
2017-09-28T09:24:19.163Z,25.54
2017-09-28T09:25:28.183Z,25.63
2017-09-28T09:26:36.881Z,25.72
2017-09-28T09:27:45.901Z,25.59
2017-09-28T09:28:55.557Z,25.54
2017-09-28T09:30:04.892Z,25.58
2017-09-28T09:31:13.587Z,25.6
2017-09-28T09:32:22.919Z,25.58
2017-09-28T09:33:32.250Z,25.63
2017-09-28T09:34:41.584Z,25.58
2017-09-28T09:35:50.918Z,25.54
2017-09-28T09:37:00.266Z,25.58
2017-09-28T09:38:09.607Z,25.58
2017-09-28T09:39:18.623Z,25.51
2017-09-28T09:40:27.644Z,25.75
2017-09-28T09:41:36.343Z,25.7
2017-09-28T09:42:45.037Z,25.77
2017-09-28T09:43:54.058Z,25.73
2017-09-28T09:45:03.394Z,25.77
2017-09-28T09:46:12.095Z,25.83
2017-09-28T09:47:21.433Z,25.75
2017-09-28T09:48:30.448Z,25.9
2017-09-28T09:49:39.462Z,25.88
2017-09-28T09:50:48.792Z,25.77
2017-09-28T09:51:57.819Z,25.73
2017-09-28T09:53:06.517Z,25.9
2017-09-28T09:54:15.214Z,25.91
2017-09-28T09:55:23.910Z,25.95
2017-09-28T09:56:33.244Z,26.02
2017-09-28T09:57:42.261Z,26.09
2017-09-28T09:58:51.597Z,26.21
2017-09-28T10:00:00.613Z,26.21
2017-09-28T10:01:09.627Z,26.33
2017-09-28T10:02:18.640Z,26.34
2017-09-28T10:03:27.978Z,26.43
2017-09-28T10:04:36.993Z,26.48
2017-09-28T10:05:46.008Z,26.59
2017-09-28T10:06:55.660Z,26.62
2017-09-28T10:08:04.687Z,26.78
2017-09-28T10:09:13.702Z,26.83
2017-09-28T10:10:22.721Z,26.83
2017-09-28T10:11:31.737Z,26.92
2017-09-28T10:12:40.756Z,26.85
2017-09-28T10:13:49.778Z,26.81
2017-09-28T10:14:58.796Z,26.9
2017-09-28T10:16:08.138Z,26.88
2017-09-28T10:17:17.167Z,27
2017-09-28T10:18:26.187Z,27.1
2017-09-28T10:19:34.893Z,27.05
2017-09-28T10:20:43.904Z,27.08
2017-09-28T10:21:52.605Z,27.18
2017-09-28T10:23:01.300Z,27.17
2017-09-28T10:24:10.322Z,27.15
2017-09-28T10:25:19.020Z,27.27
2017-09-28T10:26:28.035Z,27.47
2017-09-28T10:27:37.372Z,27.67
2017-09-28T10:28:46.395Z,27.78
2017-09-28T10:29:55.417Z,27.98
2017-09-28T10:31:04.756Z,27.95
2017-09-28T10:32:13.455Z,28.12
2017-09-28T10:33:22.161Z,28.27
2017-09-28T10:34:30.863Z,28.29
2017-09-28T10:35:39.876Z,28.14
2017-09-28T10:36:49.217Z,28.11
2017-09-28T10:37:58.233Z,27.95
2017-09-28T10:39:07.892Z,28.04
2017-09-28T10:40:16.588Z,28.02
2017-09-28T10:41:25.288Z,27.98
2017-09-28T10:42:34.308Z,28.11
2017-09-28T10:43:43.329Z,28.19
2017-09-28T10:44:52.995Z,28.23
2017-09-28T10:46:02.327Z,28.19
2017-09-28T10:47:11.668Z,28.22
2017-09-28T10:48:20.370Z,28.29
2017-09-28T10:49:29.385Z,28.37
2017-09-28T10:50:38.724Z,28.51
2017-09-28T10:51:48.061Z,28.6
2017-09-28T10:52:57.399Z,28.59
2017-09-28T10:54:06.415Z,28.67
2017-09-28T10:55:15.435Z,28.91
2017-09-28T10:56:25.407Z,29.04
2017-09-28T10:57:34.425Z,29.26
2017-09-28T10:58:43.443Z,29.27
2017-09-28T10:59:52.465Z,29.17
2017-09-28T11:01:02.124Z,29.08
2017-09-28T11:02:11.142Z,29.08
2017-09-28T11:03:20.489Z,29.17
2017-09-28T11:04:30.141Z,29.35
2017-09-28T11:05:39.481Z,29.29
2017-09-28T11:06:48.494Z,29.1
2017-09-28T11:07:57.195Z,28.93
2017-09-28T11:09:05.895Z,28.82
2017-09-28T11:10:14.598Z,28.64
2017-09-28T11:11:23.294Z,28.44
2017-09-28T11:12:32.628Z,28.26
2017-09-28T11:13:41.642Z,28.15
2017-09-28T11:14:50.661Z,27.98
2017-09-28T11:15:59.994Z,27.89
2017-09-28T11:17:09.651Z,27.8
2017-09-28T11:18:18.668Z,27.7
2017-09-28T11:19:27.689Z,27.6
2017-09-28T11:20:37.050Z,27.39
2017-09-28T11:21:46.386Z,27.3
2017-09-28T11:22:55.403Z,27.2
2017-09-28T11:24:04.739Z,27.14
2017-09-28T11:25:13.759Z,27.07
2017-09-28T11:26:23.091Z,26.99
2017-09-28T11:27:32.114Z,26.97
2017-09-28T11:28:40.814Z,26.9
2017-09-28T11:29:49.830Z,26.81
2017-09-28T11:30:58.854Z,26.75
2017-09-28T11:32:08.515Z,26.75
2017-09-28T11:33:17.854Z,26.75
2017-09-28T11:34:27.506Z,26.66
2017-09-28T11:35:36.521Z,26.63
2017-09-28T11:36:45.855Z,26.56
2017-09-28T11:37:55.518Z,26.55
2017-09-28T11:39:04.861Z,26.44
2017-09-28T11:40:13.556Z,26.45
2017-09-28T11:41:22.573Z,26.43
2017-09-28T11:42:31.595Z,26.34
2017-09-28T11:43:40.941Z,26.33
2017-09-28T11:44:49.960Z,26.29
2017-09-28T11:45:58.978Z,26.21
2017-09-28T11:47:07.997Z,26.16
2017-09-28T11:48:17.010Z,26.21
2017-09-28T11:49:26.026Z,26.1
2017-09-28T11:50:35.370Z,26.1
2017-09-28T11:51:44.703Z,26.15
2017-09-28T11:52:53.722Z,25.98
2017-09-28T11:54:03.056Z,26
2017-09-28T11:55:12.392Z,25.95
2017-09-28T11:56:21.408Z,25.95
2017-09-28T11:57:30.423Z,25.91
2017-09-28T11:58:40.088Z,25.93
2017-09-28T11:59:49.417Z,25.8
2017-09-28T12:00:58.111Z,25.87
2017-09-28T12:02:06.809Z,25.8
2017-09-28T12:03:15.828Z,25.88
2017-09-28T12:04:25.165Z,25.85
2017-09-28T12:05:34.502Z,25.9
2017-09-28T12:06:44.163Z,25.91
2017-09-28T12:07:53.502Z,25.85
2017-09-28T12:09:02.196Z,25.73
2017-09-28T12:10:11.529Z,25.75
2017-09-28T12:11:20.873Z,25.78
2017-09-28T12:12:29.565Z,25.81
2017-09-28T12:13:38.260Z,25.78
2017-09-28T12:14:47.283Z,25.77
2017-09-28T12:15:56.295Z,25.75
2017-09-28T12:17:04.989Z,25.62
2017-09-28T12:18:13.683Z,25.73
2017-09-28T12:19:22.698Z,25.68
2017-09-28T12:20:31.712Z,25.59
2017-09-28T12:21:40.406Z,25.65
2017-09-28T12:22:49.742Z,25.63
2017-09-28T12:23:58.760Z,25.58
2017-09-28T12:25:08.101Z,25.54
2017-09-28T12:26:17.433Z,25.62
2017-09-28T12:27:26.779Z,25.59
2017-09-28T12:28:36.118Z,25.54
2017-09-28T12:29:44.815Z,25.54
2017-09-28T12:30:53.514Z,25.48
2017-09-28T12:32:02.847Z,25.5
2017-09-28T12:33:11.873Z,25.44
2017-09-28T12:34:20.903Z,25.53
2017-09-28T12:35:30.558Z,25.47
2017-09-28T12:36:39.575Z,25.44
2017-09-28T12:37:48.911Z,25.44
2017-09-28T12:38:57.927Z,25.38
2017-09-28T12:40:06.952Z,25.36
2017-09-28T12:41:16.296Z,25.36
2017-09-28T12:42:25.638Z,25.43
2017-09-28T12:43:34.649Z,25.36
2017-09-28T12:44:43.658Z,25.35
2017-09-28T12:45:52.990Z,25.38
2017-09-28T12:47:02.006Z,25.31
2017-09-28T12:48:11.025Z,25.28
2017-09-28T12:49:19.744Z,25.32
2017-09-28T12:50:29.084Z,25.22
2017-09-28T12:51:38.100Z,25.23
2017-09-28T12:52:47.113Z,25.22
2017-09-28T12:53:56.129Z,25.28
2017-09-28T12:55:04.825Z,25.18
2017-09-28T12:56:14.158Z,25.22
2017-09-28T12:57:23.170Z,25.21
2017-09-28T12:58:33.142Z,25.16
2017-09-28T12:59:42.159Z,25.16
2017-09-28T13:00:51.173Z,25.11
2017-09-28T13:01:59.868Z,25.06
2017-09-28T13:03:09.566Z,25.03
2017-09-28T13:04:18.588Z,25.04
2017-09-28T13:05:27.925Z,25.07
2017-09-28T13:06:37.261Z,25.07
2017-09-28T13:07:46.599Z,24.98
2017-09-28T13:08:55.614Z,25.01
2017-09-28T13:10:04.957Z,24.95
2017-09-28T13:11:13.656Z,24.95
2017-09-28T13:12:22.674Z,24.89
2017-09-28T13:13:31.373Z,25.03
2017-09-28T13:14:40.706Z,24.92
2017-09-28T13:15:50.366Z,24.95
2017-09-28T13:16:59.064Z,24.93
2017-09-28T13:18:07.762Z,24.93
2017-09-28T13:19:16.777Z,24.95
2017-09-28T13:20:25.798Z,24.88
2017-09-28T13:21:34.820Z,24.89
2017-09-28T13:22:44.160Z,24.88
2017-09-28T13:23:53.881Z,24.89
2017-09-28T13:25:03.218Z,24.81
2017-09-28T13:26:12.232Z,24.88
2017-09-28T13:27:21.252Z,24.88
2017-09-28T13:28:29.952Z,24.85
2017-09-28T13:29:38.968Z,24.88
2017-09-28T13:30:47.985Z,24.89
2017-09-28T13:31:57.965Z,24.88
2017-09-28T13:33:07.298Z,24.84
2017-09-28T13:34:16.634Z,24.91
2017-09-28T13:35:25.969Z,24.8
2017-09-28T13:36:34.667Z,24.88
2017-09-28T13:37:44.005Z,24.85
2017-09-28T13:38:52.702Z,24.86
2017-09-28T13:40:01.398Z,24.8
2017-09-28T13:41:11.057Z,24.93
2017-09-28T13:42:19.756Z,24.88
2017-09-28T13:43:28.775Z,24.86
2017-09-28T13:44:38.115Z,24.85
2017-09-28T13:45:47.129Z,24.8
2017-09-28T13:46:56.462Z,24.8
2017-09-28T13:48:05.157Z,24.88
2017-09-28T13:49:14.171Z,24.86
2017-09-28T13:50:23.191Z,24.78
2017-09-28T13:51:32.206Z,24.84
2017-09-28T13:52:41.539Z,24.8
2017-09-28T13:53:50.236Z,24.89
2017-09-28T13:54:59.269Z,24.84
2017-09-28T13:56:08.286Z,24.85
2017-09-28T13:57:16.982Z,24.85
2017-09-28T13:58:25.995Z,24.84
2017-09-28T13:59:34.697Z,24.78
2017-09-28T14:00:43.715Z,24.8
2017-09-28T14:01:53.373Z,24.78
2017-09-28T14:03:02.388Z,24.77
2017-09-28T14:04:11.728Z,24.81
2017-09-28T14:05:20.745Z,24.78
2017-09-28T14:06:29.441Z,24.84
2017-09-28T14:07:38.135Z,24.84
2017-09-28T14:08:46.831Z,24.8
2017-09-28T14:09:55.860Z,24.81
2017-09-28T14:11:04.872Z,24.78
2017-09-28T14:12:14.957Z,24.85
2017-09-28T14:13:24.323Z,24.86
2017-09-28T14:14:33.660Z,24.78
2017-09-28T14:15:43.319Z,24.95
2017-09-28T14:16:52.019Z,24.78
2017-09-28T14:18:01.354Z,24.88
2017-09-28T14:19:10.369Z,24.91
2017-09-28T14:20:19.064Z,24.86
2017-09-28T14:21:28.401Z,24.84
2017-09-28T14:22:37.097Z,24.85
2017-09-28T14:23:46.439Z,24.88
2017-09-28T14:24:55.134Z,24.81
2017-09-28T14:26:04.145Z,24.86
2017-09-28T14:27:13.157Z,24.85
2017-09-28T14:28:21.856Z,24.88
2017-09-28T14:29:30.553Z,24.78
2017-09-28T14:30:39.567Z,24.85
2017-09-28T14:31:48.582Z,24.85
2017-09-28T14:32:57.276Z,24.78
2017-09-28T14:34:05.971Z,24.78
2017-09-28T14:35:14.669Z,24.85
2017-09-28T14:36:23.687Z,24.85
2017-09-28T14:37:32.379Z,24.88
2017-09-28T14:38:41.402Z,24.93
2017-09-28T14:39:50.766Z,24.81
2017-09-28T14:41:00.419Z,24.89
2017-09-28T14:42:09.775Z,24.78
2017-09-28T14:43:19.112Z,24.88
2017-09-28T14:44:28.460Z,24.8
2017-09-28T14:45:38.120Z,24.81
2017-09-28T14:46:48.107Z,24.76
2017-09-28T14:47:56.808Z,24.8
2017-09-28T14:49:05.827Z,24.89
2017-09-28T14:50:15.165Z,24.85
2017-09-28T14:51:24.186Z,24.86
2017-09-28T14:52:32.886Z,24.78
2017-09-28T14:53:41.587Z,24.85
2017-09-28T14:54:51.250Z,24.89
2017-09-28T14:56:00.272Z,24.78
2017-09-28T14:57:09.289Z,24.88
2017-09-28T14:58:18.627Z,24.78
2017-09-28T14:59:27.968Z,24.91
2017-09-28T15:00:37.626Z,24.8
2017-09-28T15:01:46.327Z,24.84
2017-09-28T15:02:55.664Z,24.76
2017-09-28T15:04:04.364Z,24.84
2017-09-28T15:05:13.703Z,24.81
2017-09-28T15:06:22.723Z,24.84
2017-09-28T15:07:31.423Z,24.78
2017-09-28T15:08:40.165Z,24.89
2017-09-28T15:09:49.503Z,24.85
2017-09-28T15:10:58.205Z,24.78
2017-09-28T15:12:07.553Z,24.77
2017-09-28T15:13:16.570Z,24.84
2017-09-28T15:14:25.906Z,24.68
2017-09-28T15:15:35.563Z,24.73
2017-09-28T15:16:44.906Z,24.78
2017-09-28T15:17:54.241Z,24.76
2017-09-28T15:19:03.256Z,24.84
2017-09-28T15:20:12.923Z,24.66
2017-09-28T15:21:21.618Z,24.78
2017-09-28T15:22:30.627Z,24.68
2017-09-28T15:23:40.285Z,24.8
2017-09-28T15:25:22.030Z,24.68
2017-09-28T15:26:31.368Z,24.76
2017-09-28T15:27:40.386Z,24.7
2017-09-28T15:28:49.723Z,24.76
2017-09-28T15:29:58.420Z,24.76
2017-09-28T15:31:07.438Z,24.74
2017-09-28T15:32:16.132Z,24.7
2017-09-28T15:33:24.826Z,24.74
2017-09-28T15:34:34.165Z,24.74
2017-09-28T15:35:43.186Z,24.73
2017-09-28T15:36:51.887Z,24.68
2017-09-28T15:38:01.223Z,24.73
2017-09-28T15:39:09.917Z,24.69
2017-09-28T15:40:19.253Z,24.68
2017-09-28T15:41:28.273Z,24.73
2017-09-28T15:42:37.943Z,24.68
2017-09-28T15:43:47.282Z,24.78
2017-09-28T15:44:56.295Z,24.7
2017-09-28T15:46:05.312Z,24.65
2017-09-28T15:47:14.008Z,24.66
2017-09-28T15:48:23.340Z,24.6
2017-09-28T15:49:32.037Z,24.63
2017-09-28T15:50:41.056Z,24.61
2017-09-28T15:51:49.748Z,24.65
2017-09-28T15:52:58.442Z,24.61
2017-09-28T15:54:07.812Z,24.63
2017-09-28T15:55:16.799Z,24.6
2017-09-28T15:56:25.495Z,24.57
2017-09-28T15:57:35.159Z,24.61
2017-09-28T15:58:44.503Z,24.65
2017-09-28T15:59:53.526Z,24.57
2017-09-28T16:01:02.863Z,24.65
2017-09-28T16:02:12.524Z,24.58
2017-09-28T16:03:21.219Z,24.63
2017-09-28T16:04:29.918Z,24.51
2017-09-28T16:05:39.582Z,24.63
2017-09-28T16:06:48.280Z,24.6
2017-09-28T16:07:58.194Z,24.55
2017-09-28T16:09:07.204Z,24.63
2017-09-28T16:10:16.223Z,24.57
2017-09-28T16:11:25.235Z,24.55
2017-09-28T16:12:34.579Z,24.55
2017-09-28T16:13:43.282Z,24.55
2017-09-28T16:14:52.622Z,24.47
2017-09-28T16:16:01.638Z,24.5
2017-09-28T16:17:10.976Z,24.57
2017-09-28T16:18:20.001Z,24.48
2017-09-28T16:19:29.013Z,24.5
2017-09-28T16:20:37.709Z,24.48
2017-09-28T16:21:46.736Z,24.38
2017-09-28T16:22:55.435Z,24.47
2017-09-28T16:24:05.733Z,24.48
2017-09-28T16:25:14.426Z,24.48
2017-09-28T16:26:23.441Z,24.47
2017-09-28T16:27:32.461Z,24.43
2017-09-28T16:28:41.807Z,24.42
2017-09-28T16:29:50.820Z,24.43